Airville, Pennsylvania
Current Conditions -  °F | °C
As of 12:53 PM on Sunday 21 Dec 2014 (Local Time) from KLNS Reporting Station
Overcast Overcast  
Wind Chill: 27°   Ceiling: 2500
Heat Index: 33°   Visibility: 10mi
Dew Point: 22°   Wind: 7mph
Humidity: 64%   Direction: 270°W
Pressure: 30.31"   Gusts: NA
Location:  39.83°N, 76.41°W
Report Text: KLNS 211753Z 27006KT 10SM OVC025 01/M06 A3031 RMK AO2 SLP269 T00061056 10006 21044 58009
Loading
Personal Weather Stations






























Interactive Weather Map New forecast layout! Learn more

10-Day Weather Forecast

Advertisements
Track Severe Weather on mobile